createdAt,value
2023-07-03T00:01:09.901Z,12.50
2023-07-03T00:03:53.129Z,10.20
2023-07-03T00:06:21.594Z,9.20
2023-07-03T00:08:49.831Z,11.10
2023-07-03T00:11:17.993Z,9.50
2023-07-03T00:13:46.224Z,10.90
2023-07-03T00:16:14.345Z,8.20
2023-07-03T00:18:43.087Z,11.60
2023-07-03T00:21:12.212Z,11.60
2023-07-03T00:23:40.391Z,10.40
2023-07-03T00:26:08.513Z,9.40
2023-07-03T00:28:36.612Z,9.00
2023-07-03T00:31:06.326Z,9.30
2023-07-03T00:33:34.523Z,12.50
2023-07-03T00:36:02.922Z,10.40
2023-07-03T00:38:31.117Z,11.60
2023-07-03T00:40:59.241Z,10.00
2023-07-03T00:43:28.341Z,11.10
2023-07-03T00:45:56.550Z,12.20
2023-07-03T00:48:24.887Z,8.30
2023-07-03T00:50:53.136Z,9.70
2023-07-03T00:53:21.281Z,12.30
2023-07-03T00:55:49.646Z,8.10
2023-07-03T00:58:18.035Z,11.20
2023-07-03T01:00:55.283Z,9.60
2023-07-03T01:03:51.818Z,8.20
2023-07-03T01:06:25.804Z,12.70
2023-07-03T01:08:59.465Z,8.40
2023-07-03T01:14:01.152Z,8.60
2023-07-03T01:16:31.870Z,10.00
2023-07-03T01:19:02.332Z,8.90
2023-07-03T01:22:14.538Z,9.50
2023-07-03T01:24:51.948Z,10.20
2023-07-03T01:27:24.346Z,13.40
2023-07-03T01:29:54.172Z,11.70
2023-07-03T01:32:26.153Z,9.40
2023-07-03T01:34:56.571Z,18.40
2023-07-03T01:37:27.117Z,10.60
2023-07-03T01:39:57.622Z,9.70
2023-07-03T01:42:29.400Z,14.90
2023-07-03T01:44:57.591Z,10.80
2023-07-03T01:47:25.836Z,13.90
2023-07-03T01:49:54.124Z,8.70
2023-07-03T01:52:29.629Z,10.30
2023-07-03T01:55:29.017Z,10.60
2023-07-03T01:58:36.980Z,12.80
2023-07-03T02:01:08.767Z,10.40
2023-07-03T02:03:48.854Z,9.90
2023-07-03T02:06:30.236Z,12.80
2023-07-03T02:08:58.415Z,14.30
2023-07-03T02:11:29.879Z,15.00
2023-07-03T02:13:58.292Z,12.90
2023-07-03T02:16:31.622Z,11.10
2023-07-03T02:19:02.615Z,11.50
2023-07-03T02:21:30.749Z,14.10
2023-07-03T02:23:59.089Z,16.50
2023-07-03T02:26:27.226Z,16.60
2023-07-03T02:28:55.430Z,18.50
2023-07-03T02:31:23.790Z,13.00
2023-07-03T02:33:51.959Z,16.90
2023-07-03T02:36:20.124Z,20.20
2023-07-03T02:38:48.390Z,24.10
2023-07-03T02:41:16.614Z,20.70
2023-07-03T02:43:44.735Z,16.80
2023-07-03T02:46:13.116Z,21.30
2023-07-03T02:48:41.419Z,20.70
2023-07-03T02:51:09.867Z,17.70
2023-07-03T02:53:38.687Z,12.90
2023-07-03T02:56:11.929Z,15.60
2023-07-03T02:58:42.229Z,16.60
2023-07-03T03:01:12.197Z,16.20
2023-07-03T03:03:40.387Z,11.80
2023-07-03T03:06:08.636Z,15.90
2023-07-03T03:08:36.833Z,13.00
2023-07-03T03:11:05.574Z,16.00
2023-07-03T03:13:33.908Z,12.50
2023-07-03T03:16:02.271Z,8.90
2023-07-03T03:18:30.718Z,13.90
2023-07-03T03:20:59.292Z,15.00
2023-07-03T03:23:27.559Z,12.10
2023-07-03T03:25:55.792Z,11.10
2023-07-03T03:28:24.013Z,11.50
2023-07-03T03:30:52.268Z,12.30
2023-07-03T03:33:20.508Z,10.80
2023-07-03T03:35:48.944Z,17.00
2023-07-03T03:38:17.658Z,12.50
2023-07-03T03:40:55.376Z,13.00
2023-07-03T03:43:25.577Z,14.00
2023-07-03T03:46:01.660Z,14.50
2023-07-03T03:48:31.992Z,10.90
2023-07-03T03:51:01.988Z,11.80
2023-07-03T03:53:30.855Z,14.90
2023-07-03T03:55:59.068Z,12.40
2023-07-03T03:58:28.303Z,15.90
2023-07-03T04:00:56.453Z,13.40
2023-07-03T04:03:24.897Z,16.20
2023-07-03T04:05:53.405Z,11.70
2023-07-03T04:08:21.938Z,16.10
2023-07-03T04:10:50.114Z,12.30
2023-07-03T04:13:18.569Z,15.40
2023-07-03T04:15:53.429Z,11.30
2023-07-03T04:18:22.918Z,13.50
2023-07-03T04:20:51.391Z,13.90
2023-07-03T04:23:19.718Z,13.80
2023-07-03T04:25:48.870Z,11.40
2023-07-03T04:28:19.572Z,11.10
2023-07-03T04:30:48.547Z,14.70
2023-07-03T04:33:17.489Z,16.60
2023-07-03T04:35:47.700Z,11.30
2023-07-03T04:38:20.239Z,10.80
2023-07-03T04:40:48.368Z,12.00
2023-07-03T04:43:17.769Z,13.50
2023-07-03T04:45:48.861Z,11.90
2023-07-03T04:48:18.701Z,11.10
2023-07-03T04:50:50.570Z,15.30
2023-07-03T04:53:22.805Z,12.90
2023-07-03T04:55:52.425Z,13.80
2023-07-03T04:58:21.286Z,12.60
2023-07-03T05:00:50.046Z,10.80
2023-07-03T05:03:18.699Z,15.70
2023-07-03T05:05:47.033Z,11.40
2023-07-03T05:08:16.178Z,11.90
2023-07-03T05:10:44.432Z,12.70
2023-07-03T05:13:12.607Z,12.00
2023-07-03T05:15:41.094Z,14.60
2023-07-03T05:18:09.355Z,13.00
2023-07-03T05:20:37.626Z,15.00
2023-07-03T05:23:05.920Z,13.70
2023-07-03T05:25:34.126Z,13.20
2023-07-03T05:28:02.344Z,13.40
2023-07-03T05:30:30.555Z,15.90
2023-07-03T05:32:58.842Z,11.70
2023-07-03T05:35:27.047Z,9.30
2023-07-03T05:37:55.216Z,13.30
2023-07-03T05:40:23.717Z,12.60
2023-07-03T05:42:52.274Z,12.70
2023-07-03T05:45:20.562Z,9.00
2023-07-03T05:47:48.841Z,12.30
2023-07-03T05:50:17.201Z,12.10
2023-07-03T05:52:45.692Z,11.80
2023-07-03T05:55:13.914Z,9.70
2023-07-03T05:57:42.135Z,11.50
2023-07-03T06:00:14.598Z,10.30
2023-07-03T06:02:49.370Z,10.60
2023-07-03T06:05:18.083Z,10.70
2023-07-03T06:07:46.316Z,10.00
2023-07-03T06:10:14.766Z,11.20
2023-07-03T06:12:43.987Z,9.80
2023-07-03T06:15:12.643Z,14.20
2023-07-03T06:17:42.226Z,12.20
2023-07-03T06:20:12.333Z,12.80
2023-07-03T06:22:43.116Z,9.50
2023-07-03T06:25:11.765Z,13.10
2023-07-03T06:27:40.212Z,11.80
2023-07-03T06:30:09.220Z,10.40
2023-07-03T06:32:38.179Z,9.90
2023-07-03T06:35:07.609Z,7.40
2023-07-03T06:37:38.536Z,8.40
2023-07-03T06:40:15.719Z,7.30
2023-07-03T06:42:44.453Z,10.40
2023-07-03T06:45:15.897Z,10.80
2023-07-03T06:47:44.110Z,9.70
2023-07-03T06:50:12.791Z,7.40
2023-07-03T06:52:42.699Z,12.10
2023-07-03T06:55:11.345Z,8.70
2023-07-03T06:57:39.503Z,11.60
2023-07-03T07:00:08.334Z,9.20
2023-07-03T07:02:36.543Z,8.30
2023-07-03T07:05:05.053Z,8.20
2023-07-03T07:07:33.374Z,8.50
2023-07-03T07:10:01.593Z,8.40
2023-07-03T07:12:29.919Z,6.90
2023-07-03T07:14:58.158Z,10.00
2023-07-03T07:17:35.159Z,6.80
2023-07-03T07:20:14.724Z,10.10
2023-07-03T07:22:42.887Z,8.00
2023-07-03T07:25:11.389Z,10.00
2023-07-03T07:27:39.584Z,11.80
2023-07-03T07:30:08.537Z,6.50
2023-07-03T07:32:37.477Z,5.80
2023-07-03T07:35:08.983Z,6.20
2023-07-03T07:37:37.212Z,7.70
2023-07-03T07:40:06.605Z,8.90
2023-07-03T07:42:35.237Z,11.80
2023-07-03T07:45:04.007Z,10.50
2023-07-03T07:47:32.346Z,10.20
2023-07-03T07:50:00.646Z,9.00
2023-07-03T07:52:29.519Z,9.10
2023-07-03T07:54:59.052Z,9.40
2023-07-03T07:57:30.630Z,8.40
2023-07-03T07:59:58.977Z,6.40
2023-07-03T08:02:27.824Z,8.20
2023-07-03T08:04:58.129Z,7.70
2023-07-03T08:07:26.429Z,8.40
2023-07-03T08:09:54.636Z,8.20
2023-07-03T08:12:22.987Z,7.50
2023-07-03T08:14:51.248Z,7.50
2023-07-03T08:17:20.245Z,8.20
2023-07-03T08:19:48.465Z,6.50
2023-07-03T08:22:16.688Z,10.00
2023-07-03T08:24:45.722Z,7.20
2023-07-03T08:27:14.029Z,8.30
2023-07-03T08:29:42.416Z,7.50
2023-07-03T08:32:11.887Z,6.50
2023-07-03T08:34:40.237Z,10.10
2023-07-03T08:37:09.102Z,7.30
2023-07-03T08:39:40.679Z,6.90
2023-07-03T08:42:27.358Z,9.50
2023-07-03T08:44:57.825Z,8.80
2023-07-03T08:47:29.827Z,6.00
2023-07-03T08:50:02.039Z,7.50
2023-07-03T08:52:46.274Z,8.90
2023-07-03T08:55:23.325Z,7.50
2023-07-03T08:57:51.860Z,9.30
2023-07-03T09:00:22.236Z,7.20
2023-07-03T09:03:23.803Z,7.10
2023-07-03T09:06:18.264Z,12.10
2023-07-03T09:09:10.146Z,7.00
2023-07-03T09:11:45.751Z,7.30
2023-07-03T09:14:24.224Z,8.80
2023-07-03T09:16:56.533Z,8.30
2023-07-03T09:19:28.036Z,10.60
2023-07-03T09:22:00.789Z,10.70
2023-07-03T09:24:39.325Z,10.00
2023-07-03T09:27:27.406Z,12.30
2023-07-03T09:30:04.196Z,5.90
2023-07-03T09:32:33.743Z,7.70
2023-07-03T09:35:14.829Z,5.30
2023-07-03T09:37:58.763Z,6.30
2023-07-03T09:40:33.049Z,7.10
2023-07-03T09:43:02.624Z,7.10
2023-07-03T09:45:41.836Z,7.80
2023-07-03T09:48:19.713Z,6.80
2023-07-03T09:51:05.767Z,8.40
2023-07-03T09:53:40.548Z,11.90
2023-07-03T09:56:18.578Z,5.60
2023-07-03T09:58:51.656Z,7.80
2023-07-03T10:07:08.446Z,5.80
2023-07-03T10:12:32.875Z,4.90
2023-07-03T10:15:22.805Z,9.70
2023-07-03T10:18:02.859Z,10.20
2023-07-03T10:20:36.744Z,6.20
2023-07-03T10:23:08.992Z,6.00
2023-07-03T10:25:43.384Z,7.00
2023-07-03T10:28:25.324Z,6.30
2023-07-03T10:30:59.604Z,7.50
2023-07-03T10:33:34.327Z,10.30
2023-07-03T10:36:07.818Z,7.50
2023-07-03T10:41:25.790Z,7.30
2023-07-03T10:44:00.923Z,8.00
2023-07-03T10:46:41.391Z,8.70
2023-07-03T10:49:29.913Z,5.60
2023-07-03T10:52:16.913Z,7.30
2023-07-03T10:55:07.966Z,6.80
2023-07-03T11:00:30.055Z,10.30
2023-07-03T11:03:08.946Z,11.00
2023-07-03T11:05:45.521Z,8.20
2023-07-03T11:08:16.844Z,8.40
2023-07-03T11:11:06.367Z,8.20
2023-07-03T11:13:53.984Z,7.60
2023-07-03T11:16:36.894Z,9.10
2023-07-03T11:28:53.217Z,8.90
2023-07-03T11:31:26.016Z,6.50
2023-07-03T11:36:49.849Z,7.50
2023-07-03T11:44:40.913Z,7.20
2023-07-03T11:47:15.401Z,8.00
2023-07-03T11:49:58.664Z,7.30
2023-07-03T11:52:31.303Z,11.10
2023-07-03T11:55:05.838Z,6.90
2023-07-03T11:57:43.097Z,8.80
2023-07-03T12:00:21.129Z,10.60
2023-07-03T12:02:49.732Z,6.10
2023-07-03T12:05:46.713Z,8.00
2023-07-03T12:08:24.267Z,10.30
2023-07-03T12:10:56.657Z,10.20
2023-07-03T12:13:50.545Z,9.30
2023-07-03T12:16:29.136Z,13.00
2023-07-03T12:18:57.946Z,7.90
2023-07-03T12:21:33.997Z,12.00
2023-07-03T12:24:20.341Z,15.30
2023-07-03T12:26:54.431Z,10.70
2023-07-03T12:29:23.735Z,10.80
2023-07-03T12:31:57.575Z,9.80
2023-07-03T12:34:27.833Z,11.30
2023-07-03T12:37:03.828Z,7.70
2023-07-03T12:39:34.593Z,7.60
2023-07-03T12:42:11.349Z,7.70
2023-07-03T12:44:40.984Z,10.90
2023-07-03T12:47:18.891Z,12.00
2023-07-03T12:50:01.855Z,11.90
2023-07-03T12:52:33.292Z,10.10
2023-07-03T12:57:38.871Z,10.80
2023-07-03T13:00:16.601Z,12.50
2023-07-03T13:02:47.387Z,11.00
2023-07-03T13:05:23.660Z,10.90
2023-07-03T13:07:54.735Z,9.00
2023-07-03T13:10:24.883Z,16.00
2023-07-03T13:13:19.493Z,15.70
2023-07-03T13:15:47.760Z,11.50
2023-07-03T13:18:19.531Z,12.40
2023-07-03T13:21:06.383Z,11.10
2023-07-03T13:23:37.835Z,11.90
2023-07-03T13:26:08.877Z,12.00
2023-07-03T13:28:52.519Z,9.60
2023-07-03T13:34:12.649Z,11.10
2023-07-03T13:36:53.994Z,8.60
2023-07-03T13:39:22.143Z,11.70
2023-07-03T13:41:51.112Z,13.90
2023-07-03T13:44:25.917Z,13.20
2023-07-03T13:46:55.270Z,8.90
2023-07-03T13:49:23.635Z,9.20
2023-07-03T13:51:52.513Z,13.20
2023-07-03T13:54:20.806Z,11.40
2023-07-03T13:56:49.273Z,10.70
2023-07-03T13:59:17.667Z,15.20
2023-07-03T14:01:46.089Z,10.50
2023-07-03T14:04:14.559Z,11.50
2023-07-03T14:06:42.984Z,10.70
2023-07-03T14:09:11.169Z,11.90
2023-07-03T14:11:39.491Z,12.40
2023-07-03T14:14:10.192Z,12.70
2023-07-03T14:16:38.390Z,10.10
2023-07-03T14:19:07.856Z,11.00
2023-07-03T14:21:36.582Z,12.30
2023-07-03T14:24:05.187Z,11.50
2023-07-03T14:26:33.492Z,12.00
2023-07-03T14:29:01.788Z,9.30
2023-07-03T14:31:29.997Z,10.00
2023-07-03T14:33:58.265Z,8.00
2023-07-03T14:36:26.798Z,8.90
2023-07-03T14:38:56.384Z,10.20
2023-07-03T14:41:24.672Z,10.90
2023-07-03T14:43:53.000Z,9.20
2023-07-03T14:46:21.984Z,9.10
2023-07-03T14:48:51.203Z,8.50
2023-07-03T14:51:19.841Z,9.40
2023-07-03T14:53:48.053Z,10.30
2023-07-03T14:56:16.404Z,9.10
2023-07-03T14:58:44.608Z,10.60
2023-07-03T15:01:12.967Z,13.90
2023-07-03T15:03:41.617Z,11.10
2023-07-03T15:06:10.123Z,8.00
2023-07-03T15:08:38.821Z,11.00
2023-07-03T15:11:14.816Z,9.30
2023-07-03T15:13:43.615Z,10.10
2023-07-03T15:16:12.020Z,9.50
2023-07-03T15:18:40.294Z,9.60
2023-07-03T15:21:11.438Z,8.10
2023-07-03T15:23:39.738Z,7.70
2023-07-03T15:26:08.861Z,7.10
2023-07-03T15:28:37.408Z,9.00
2023-07-03T15:31:06.254Z,11.00
2023-07-03T15:33:36.029Z,8.50
2023-07-03T15:36:04.630Z,10.60
2023-07-03T15:38:33.241Z,6.90
2023-07-03T15:41:01.704Z,6.70
2023-07-03T15:43:32.617Z,6.50
2023-07-03T15:46:04.123Z,6.70
2023-07-03T15:48:33.817Z,6.70
2023-07-03T15:51:05.121Z,8.30
2023-07-03T15:53:35.274Z,7.40
2023-07-03T15:56:04.868Z,10.50
2023-07-03T15:58:39.526Z,6.70
2023-07-03T16:01:14.174Z,9.20
2023-07-03T16:03:43.453Z,8.10
2023-07-03T16:06:15.237Z,5.40
2023-07-03T16:08:45.512Z,7.20
2023-07-03T16:11:19.137Z,8.50
2023-07-03T16:13:49.136Z,7.70
2023-07-03T16:16:25.467Z,11.80
2023-07-03T16:19:01.535Z,8.20
2023-07-03T16:21:31.773Z,6.50
2023-07-03T16:24:04.904Z,8.60
2023-07-03T16:26:35.723Z,10.70
2023-07-03T16:29:08.402Z,12.70
2023-07-03T16:31:39.488Z,7.70
2023-07-03T16:34:08.727Z,9.40
2023-07-03T16:36:37.336Z,8.60
2023-07-03T16:39:05.921Z,8.20
2023-07-03T16:41:37.569Z,7.80
2023-07-03T16:44:06.886Z,7.40
2023-07-03T16:46:37.855Z,7.70
2023-07-03T16:49:08.184Z,7.10
2023-07-03T16:51:36.920Z,9.60
2023-07-03T16:54:07.158Z,7.10
2023-07-03T16:56:36.330Z,9.90
2023-07-03T16:59:04.957Z,7.10
2023-07-03T17:01:33.318Z,8.80
2023-07-03T17:04:01.937Z,7.30
2023-07-03T17:06:36.244Z,8.30
2023-07-03T17:09:05.042Z,7.90
2023-07-03T17:11:34.301Z,6.40
2023-07-03T17:14:02.720Z,8.00
2023-07-03T17:16:31.865Z,8.40
2023-07-03T17:19:00.140Z,11.60
2023-07-03T17:21:29.775Z,8.20
2023-07-03T17:24:00.386Z,9.50
2023-07-03T17:26:29.915Z,8.40
2023-07-03T17:28:58.448Z,8.00
2023-07-03T17:31:26.983Z,8.70
2023-07-03T17:33:56.346Z,10.00
2023-07-03T17:36:25.594Z,9.40
2023-07-03T17:38:53.960Z,7.80
2023-07-03T17:41:24.789Z,8.90
2023-07-03T17:43:53.175Z,10.20
2023-07-03T17:46:21.661Z,10.60
2023-07-03T17:48:50.114Z,8.00
2023-07-03T17:51:18.499Z,6.00
2023-07-03T17:53:48.600Z,6.90
2023-07-03T17:56:16.934Z,7.50
2023-07-03T17:58:45.768Z,6.50
2023-07-03T18:01:14.121Z,4.60
2023-07-03T18:03:42.499Z,10.30
2023-07-03T18:06:10.934Z,10.50
2023-07-03T18:08:39.242Z,7.20
2023-07-03T18:11:07.348Z,9.80
2023-07-03T18:13:35.784Z,7.40
2023-07-03T18:16:04.286Z,8.90
2023-07-03T18:18:32.612Z,8.50
2023-07-03T18:21:00.872Z,8.50
2023-07-03T18:23:29.730Z,8.10
2023-07-03T18:25:57.911Z,10.10
2023-07-03T18:28:26.139Z,10.60
2023-07-03T18:31:04.944Z,12.40
2023-07-03T18:33:35.277Z,6.30
2023-07-03T18:36:04.571Z,7.20
2023-07-03T18:38:32.870Z,8.30
2023-07-03T18:41:05.935Z,6.10
2023-07-03T18:43:34.354Z,8.80
2023-07-03T18:46:02.808Z,9.70
2023-07-03T18:48:31.134Z,6.60
2023-07-03T18:50:59.688Z,8.40
2023-07-03T18:53:28.030Z,11.70
2023-07-03T18:55:56.428Z,6.00
2023-07-03T18:58:33.459Z,9.10
2023-07-03T19:01:02.146Z,6.20
2023-07-03T19:03:30.921Z,6.70
2023-07-03T19:06:01.982Z,8.90
2023-07-03T19:08:31.996Z,8.20
2023-07-03T19:11:00.490Z,7.10
2023-07-03T19:13:29.928Z,10.80
2023-07-03T19:15:59.107Z,11.20
2023-07-03T19:18:31.305Z,9.50
2023-07-03T19:20:59.905Z,11.70
2023-07-03T19:23:30.377Z,8.00
2023-07-03T19:26:00.367Z,10.90
2023-07-03T19:28:29.932Z,9.60
2023-07-03T19:31:02.868Z,8.70
2023-07-03T19:33:31.859Z,7.70
2023-07-03T19:36:02.622Z,8.20
2023-07-03T19:38:31.259Z,9.70
2023-07-03T19:40:59.713Z,8.90
2023-07-03T19:43:27.963Z,8.80
2023-07-03T19:45:56.188Z,9.90
2023-07-03T19:48:24.649Z,9.30
2023-07-03T19:50:53.000Z,6.60
2023-07-03T19:53:21.555Z,9.00
2023-07-03T19:55:50.120Z,8.90
2023-07-03T19:58:18.862Z,10.90
2023-07-03T20:00:56.040Z,9.30
2023-07-03T20:03:24.704Z,10.60
2023-07-03T20:05:53.528Z,8.10
2023-07-03T20:08:22.244Z,8.60
2023-07-03T20:11:02.139Z,10.80
2023-07-03T20:13:30.592Z,10.20
2023-07-03T20:16:04.090Z,14.60
2023-07-03T20:21:06.470Z,9.20
2023-07-03T20:23:35.885Z,11.40
2023-07-03T20:26:04.992Z,9.70
2023-07-03T20:28:34.188Z,10.50
2023-07-03T20:31:02.484Z,8.60
2023-07-03T20:33:30.769Z,8.20
2023-07-03T20:36:05.461Z,9.60
2023-07-03T20:38:33.854Z,8.70
2023-07-03T20:41:09.421Z,11.30
2023-07-03T20:43:42.413Z,9.50
2023-07-03T20:46:17.747Z,10.10
2023-07-03T20:48:46.279Z,8.70
2023-07-03T20:51:22.292Z,8.50
2023-07-03T20:53:52.341Z,9.30
2023-07-03T20:56:23.517Z,10.10
2023-07-03T20:58:54.630Z,8.50
2023-07-03T21:01:32.499Z,9.70
2023-07-03T21:04:04.214Z,11.80
2023-07-03T21:06:35.860Z,9.20
2023-07-03T21:09:05.542Z,10.60
2023-07-03T21:11:36.205Z,8.40
2023-07-03T21:14:06.378Z,9.30
2023-07-03T21:16:36.733Z,10.10
2023-07-03T21:19:08.287Z,11.90
2023-07-03T21:21:38.175Z,8.50
2023-07-03T21:24:12.044Z,10.40
2023-07-03T21:26:40.363Z,11.90
2023-07-03T21:29:08.533Z,13.50
2023-07-03T21:31:37.425Z,8.50
2023-07-03T21:34:06.282Z,7.10
2023-07-03T21:36:34.666Z,7.60
2023-07-03T21:39:06.522Z,7.60
2023-07-03T21:41:36.631Z,10.30
2023-07-03T21:44:16.398Z,11.80
2023-07-03T21:46:44.850Z,8.60
2023-07-03T21:49:15.494Z,9.90
2023-07-03T21:51:43.985Z,8.20
2023-07-03T21:54:12.173Z,8.30
2023-07-03T21:56:41.695Z,8.90
2023-07-03T21:59:10.405Z,9.90
2023-07-03T22:01:39.965Z,12.40
2023-07-03T22:04:09.303Z,7.50
2023-07-03T22:06:37.848Z,6.80
2023-07-03T22:09:06.076Z,7.00
2023-07-03T22:11:34.281Z,9.20
2023-07-03T22:14:03.865Z,10.60
2023-07-03T22:16:32.340Z,10.00
2023-07-03T22:19:00.837Z,9.90
2023-07-03T22:21:30.699Z,8.60
2023-07-03T22:24:01.138Z,8.30
2023-07-03T22:26:30.267Z,9.00
2023-07-03T22:28:58.601Z,9.30
2023-07-03T22:31:27.785Z,8.90
2023-07-03T22:33:56.251Z,6.50
2023-07-03T22:36:24.776Z,11.00
2023-07-03T22:38:54.864Z,9.10
2023-07-03T22:41:23.754Z,8.40
2023-07-03T22:43:52.162Z,13.20
2023-07-03T22:46:21.565Z,8.40
2023-07-03T22:48:53.894Z,9.80
2023-07-03T22:51:22.154Z,11.60
2023-07-03T22:53:50.979Z,9.10
2023-07-03T22:56:19.651Z,12.30
2023-07-03T22:58:47.698Z,12.30
2023-07-03T23:01:16.979Z,10.80
2023-07-03T23:03:45.115Z,10.30
2023-07-03T23:06:13.866Z,10.50
2023-07-03T23:08:43.121Z,9.70
2023-07-03T23:11:11.226Z,9.30
2023-07-03T23:13:39.472Z,8.70
2023-07-03T23:16:10.455Z,8.30
2023-07-03T23:18:41.382Z,10.60
2023-07-03T23:21:12.839Z,7.90
2023-07-03T23:23:41.742Z,12.00
2023-07-03T23:26:18.671Z,11.10
2023-07-03T23:28:46.865Z,10.50
2023-07-03T23:31:17.737Z,10.90
2023-07-03T23:33:51.691Z,9.30
2023-07-03T23:36:23.947Z,9.50
2023-07-03T23:38:53.118Z,8.50
2023-07-03T23:41:21.738Z,9.40
2023-07-03T23:43:50.463Z,10.40
2023-07-03T23:46:18.671Z,10.00
2023-07-03T23:48:47.109Z,8.20
2023-07-03T23:51:18.717Z,12.40
2023-07-03T23:53:49.331Z,9.10
2023-07-03T23:56:19.497Z,10.20
2023-07-03T23:58:49.670Z,8.80
